sensor_id;sensor_type;location;lat;lon;timestamp;P1;durP1;ratioP1;P2;durP2;ratioP2
12556;SDS011;6344;49.932;8.308;2024-01-11T00:02:20;35.55;;;25.65;;
12556;SDS011;6344;49.932;8.308;2024-01-11T00:04:47;39.65;;;25.83;;
12556;SDS011;6344;49.932;8.308;2024-01-11T00:07:15;39.97;;;26.02;;
12556;SDS011;6344;49.932;8.308;2024-01-11T00:09:43;40.97;;;25.08;;
12556;SDS011;6344;49.932;8.308;2024-01-11T00:12:10;46.08;;;24.88;;
12556;SDS011;6344;49.932;8.308;2024-01-11T00:14:37;45.10;;;27.50;;
12556;SDS011;6344;49.932;8.308;2024-01-11T00:17:05;46.67;;;27.80;;
12556;SDS011;6344;49.932;8.308;2024-01-11T00:19:32;43.72;;;28.08;;
12556;SDS011;6344;49.932;8.308;2024-01-11T00:21:59;39.67;;;26.23;;
12556;SDS011;6344;49.932;8.308;2024-01-11T00:24:27;47.92;;;30.20;;
12556;SDS011;6344;49.932;8.308;2024-01-11T00:26:54;41.42;;;27.25;;
12556;SDS011;6344;49.932;8.308;2024-01-11T00:29:21;44.35;;;27.27;;
12556;SDS011;6344;49.932;8.308;2024-01-11T00:31:48;41.20;;;28.83;;
12556;SDS011;6344;49.932;8.308;2024-01-11T00:34:15;42.22;;;28.00;;
12556;SDS011;6344;49.932;8.308;2024-01-11T00:36:42;40.95;;;23.63;;
12556;SDS011;6344;49.932;8.308;2024-01-11T00:39:09;40.10;;;26.02;;
12556;SDS011;6344;49.932;8.308;2024-01-11T00:41:38;41.58;;;25.60;;
12556;SDS011;6344;49.932;8.308;2024-01-11T00:44:05;45.83;;;27.63;;
12556;SDS011;6344;49.932;8.308;2024-01-11T00:46:32;39.95;;;27.55;;
12556;SDS011;6344;49.932;8.308;2024-01-11T00:48:59;41.95;;;26.17;;
12556;SDS011;6344;49.932;8.308;2024-01-11T00:51:26;41.65;;;25.50;;
12556;SDS011;6344;49.932;8.308;2024-01-11T00:53:53;45.33;;;26.98;;
12556;SDS011;6344;49.932;8.308;2024-01-11T00:56:20;42.17;;;27.33;;
12556;SDS011;6344;49.932;8.308;2024-01-11T00:58:49;36.53;;;24.92;;
12556;SDS011;6344;49.932;8.308;2024-01-11T01:01:16;38.60;;;26.20;;
12556;SDS011;6344;49.932;8.308;2024-01-11T01:03:43;33.97;;;25.27;;
12556;SDS011;6344;49.932;8.308;2024-01-11T01:06:10;39.92;;;25.65;;
12556;SDS011;6344;49.932;8.308;2024-01-11T01:08:37;39.88;;;25.20;;
12556;SDS011;6344;49.932;8.308;2024-01-11T01:11:04;42.47;;;26.25;;
12556;SDS011;6344;49.932;8.308;2024-01-11T01:13:31;40.92;;;25.67;;
12556;SDS011;6344;49.932;8.308;2024-01-11T01:16:00;43.35;;;27.17;;
12556;SDS011;6344;49.932;8.308;2024-01-11T01:18:27;41.22;;;26.52;;
12556;SDS011;6344;49.932;8.308;2024-01-11T01:20:54;43.80;;;27.23;;
12556;SDS011;6344;49.932;8.308;2024-01-11T01:23:21;41.40;;;26.95;;
12556;SDS011;6344;49.932;8.308;2024-01-11T01:25:48;44.00;;;25.10;;
12556;SDS011;6344;49.932;8.308;2024-01-11T01:28:15;38.70;;;25.85;;
12556;SDS011;6344;49.932;8.308;2024-01-11T01:30:42;46.28;;;26.55;;
12556;SDS011;6344;49.932;8.308;2024-01-11T01:33:10;41.20;;;24.88;;
12556;SDS011;6344;49.932;8.308;2024-01-11T01:35:37;41.22;;;27.17;;
12556;SDS011;6344;49.932;8.308;2024-01-11T01:38:04;42.55;;;27.60;;
12556;SDS011;6344;49.932;8.308;2024-01-11T01:40:31;43.75;;;26.02;;
12556;SDS011;6344;49.932;8.308;2024-01-11T01:42:58;46.08;;;27.70;;
12556;SDS011;6344;49.932;8.308;2024-01-11T01:45:25;41.92;;;25.63;;
12556;SDS011;6344;49.932;8.308;2024-01-11T01:47:53;42.08;;;25.95;;
12556;SDS011;6344;49.932;8.308;2024-01-11T01:50:21;38.75;;;27.55;;
12556;SDS011;6344;49.932;8.308;2024-01-11T01:52:48;47.60;;;28.50;;
12556;SDS011;6344;49.932;8.308;2024-01-11T01:55:16;43.42;;;27.55;;
12556;SDS011;6344;49.932;8.308;2024-01-11T01:57:44;35.17;;;25.20;;
12556;SDS011;6344;49.932;8.308;2024-01-11T02:00:12;41.70;;;28.30;;
12556;SDS011;6344;49.932;8.308;2024-01-11T02:02:40;41.25;;;25.77;;
12556;SDS011;6344;49.932;8.308;2024-01-11T02:05:09;46.90;;;28.52;;
12556;SDS011;6344;49.932;8.308;2024-01-11T02:07:38;40.47;;;28.13;;
12556;SDS011;6344;49.932;8.308;2024-01-11T02:10:06;44.42;;;27.30;;
12556;SDS011;6344;49.932;8.308;2024-01-11T02:12:34;40.30;;;28.23;;
12556;SDS011;6344;49.932;8.308;2024-01-11T02:15:02;42.88;;;28.10;;
12556;SDS011;6344;49.932;8.308;2024-01-11T02:17:29;39.20;;;26.58;;
12556;SDS011;6344;49.932;8.308;2024-01-11T02:19:56;40.10;;;27.95;;
12556;SDS011;6344;49.932;8.308;2024-01-11T02:22:24;40.50;;;26.77;;
12556;SDS011;6344;49.932;8.308;2024-01-11T02:24:56;38.83;;;26.48;;
12556;SDS011;6344;49.932;8.308;2024-01-11T02:27:23;42.63;;;26.90;;
12556;SDS011;6344;49.932;8.308;2024-01-11T02:29:50;39.78;;;26.33;;
12556;SDS011;6344;49.932;8.308;2024-01-11T02:32:17;43.70;;;26.55;;
12556;SDS011;6344;49.932;8.308;2024-01-11T02:34:44;42.80;;;27.45;;
12556;SDS011;6344;49.932;8.308;2024-01-11T02:37:12;43.30;;;27.70;;
12556;SDS011;6344;49.932;8.308;2024-01-11T02:39:39;42.30;;;27.30;;
12556;SDS011;6344;49.932;8.308;2024-01-11T02:42:07;40.50;;;27.30;;
12556;SDS011;6344;49.932;8.308;2024-01-11T02:44:34;45.83;;;25.88;;
12556;SDS011;6344;49.932;8.308;2024-01-11T02:47:02;41.88;;;27.02;;
12556;SDS011;6344;49.932;8.308;2024-01-11T02:49:29;45.30;;;27.00;;
12556;SDS011;6344;49.932;8.308;2024-01-11T02:51:56;49.95;;;27.88;;
12556;SDS011;6344;49.932;8.308;2024-01-11T02:54:23;41.90;;;27.38;;
12556;SDS011;6344;49.932;8.308;2024-01-11T02:56:50;48.22;;;27.90;;
12556;SDS011;6344;49.932;8.308;2024-01-11T02:59:18;42.55;;;26.02;;
12556;SDS011;6344;49.932;8.308;2024-01-11T03:01:46;45.63;;;28.17;;
12556;SDS011;6344;49.932;8.308;2024-01-11T03:04:13;41.67;;;27.30;;
12556;SDS011;6344;49.932;8.308;2024-01-11T03:06:40;42.33;;;26.10;;
12556;SDS011;6344;49.932;8.308;2024-01-11T03:09:07;40.38;;;26.02;;
12556;SDS011;6344;49.932;8.308;2024-01-11T03:11:34;43.05;;;25.92;;
12556;SDS011;6344;49.932;8.308;2024-01-11T03:14:02;41.40;;;28.08;;
12556;SDS011;6344;49.932;8.308;2024-01-11T03:16:31;41.17;;;27.08;;
12556;SDS011;6344;49.932;8.308;2024-01-11T03:18:58;51.47;;;28.00;;
12556;SDS011;6344;49.932;8.308;2024-01-11T03:21:26;46.95;;;27.38;;
12556;SDS011;6344;49.932;8.308;2024-01-11T03:23:53;47.15;;;27.92;;
12556;SDS011;6344;49.932;8.308;2024-01-11T03:26:20;40.33;;;26.35;;
12556;SDS011;6344;49.932;8.308;2024-01-11T03:28:47;39.25;;;25.27;;
12556;SDS011;6344;49.932;8.308;2024-01-11T03:31:14;43.33;;;29.02;;
12556;SDS011;6344;49.932;8.308;2024-01-11T03:33:42;40.67;;;27.30;;
12556;SDS011;6344;49.932;8.308;2024-01-11T03:36:10;40.40;;;26.55;;
12556;SDS011;6344;49.932;8.308;2024-01-11T03:38:37;40.13;;;24.52;;
12556;SDS011;6344;49.932;8.308;2024-01-11T03:41:07;45.40;;;26.42;;
12556;SDS011;6344;49.932;8.308;2024-01-11T03:43:34;41.75;;;27.98;;
12556;SDS011;6344;49.932;8.308;2024-01-11T03:46:02;47.83;;;27.58;;
12556;SDS011;6344;49.932;8.308;2024-01-11T03:48:28;42.30;;;24.85;;
12556;SDS011;6344;49.932;8.308;2024-01-11T03:50:56;40.83;;;26.95;;
12556;SDS011;6344;49.932;8.308;2024-01-11T03:53:23;43.50;;;25.45;;
12556;SDS011;6344;49.932;8.308;2024-01-11T03:55:50;43.85;;;26.05;;
12556;SDS011;6344;49.932;8.308;2024-01-11T03:58:17;42.65;;;26.42;;
12556;SDS011;6344;49.932;8.308;2024-01-11T04:00:44;39.72;;;26.55;;
12556;SDS011;6344;49.932;8.308;2024-01-11T04:03:11;40.45;;;26.83;;
12556;SDS011;6344;49.932;8.308;2024-01-11T04:05:38;48.03;;;28.35;;
12556;SDS011;6344;49.932;8.308;2024-01-11T04:08:07;39.92;;;27.40;;
12556;SDS011;6344;49.932;8.308;2024-01-11T04:10:34;42.58;;;25.45;;
12556;SDS011;6344;49.932;8.308;2024-01-11T04:13:01;44.35;;;29.10;;
12556;SDS011;6344;49.932;8.308;2024-01-11T04:15:28;41.80;;;26.63;;
12556;SDS011;6344;49.932;8.308;2024-01-11T04:17:55;42.47;;;25.33;;
12556;SDS011;6344;49.932;8.308;2024-01-11T04:20:22;46.53;;;26.17;;
12556;SDS011;6344;49.932;8.308;2024-01-11T04:22:50;36.95;;;23.77;;
12556;SDS011;6344;49.932;8.308;2024-01-11T04:25:18;43.85;;;24.35;;
12556;SDS011;6344;49.932;8.308;2024-01-11T04:27:46;38.15;;;25.50;;
12556;SDS011;6344;49.932;8.308;2024-01-11T04:30:13;41.17;;;26.27;;
12556;SDS011;6344;49.932;8.308;2024-01-11T04:32:40;43.88;;;26.15;;
12556;SDS011;6344;49.932;8.308;2024-01-11T04:35:07;41.60;;;25.90;;
12556;SDS011;6344;49.932;8.308;2024-01-11T04:37:35;44.35;;;26.50;;
12556;SDS011;6344;49.932;8.308;2024-01-11T04:40:02;45.83;;;24.45;;
12556;SDS011;6344;49.932;8.308;2024-01-11T04:42:31;47.33;;;26.02;;
12556;SDS011;6344;49.932;8.308;2024-01-11T04:44:58;38.53;;;23.95;;
12556;SDS011;6344;49.932;8.308;2024-01-11T04:47:25;46.00;;;22.83;;
12556;SDS011;6344;49.932;8.308;2024-01-11T04:49:52;43.35;;;25.85;;
12556;SDS011;6344;49.932;8.308;2024-01-11T04:52:19;38.88;;;23.50;;
12556;SDS011;6344;49.932;8.308;2024-01-11T04:54:46;38.15;;;22.88;;
12556;SDS011;6344;49.932;8.308;2024-01-11T04:57:13;37.97;;;22.90;;
12556;SDS011;6344;49.932;8.308;2024-01-11T04:59:41;51.83;;;27.58;;
12556;SDS011;6344;49.932;8.308;2024-01-11T05:02:08;40.03;;;25.58;;
12556;SDS011;6344;49.932;8.308;2024-01-11T05:04:35;55.00;;;27.63;;
12556;SDS011;6344;49.932;8.308;2024-01-11T05:07:02;37.47;;;22.23;;
12556;SDS011;6344;49.932;8.308;2024-01-11T05:09:29;37.90;;;23.52;;
12556;SDS011;6344;49.932;8.308;2024-01-11T05:11:56;38.00;;;24.67;;
12556;SDS011;6344;49.932;8.308;2024-01-11T05:14:23;46.90;;;24.13;;
12556;SDS011;6344;49.932;8.308;2024-01-11T05:16:52;38.33;;;23.38;;
12556;SDS011;6344;49.932;8.308;2024-01-11T05:19:18;40.65;;;23.50;;
12556;SDS011;6344;49.932;8.308;2024-01-11T05:21:45;43.83;;;26.00;;
12556;SDS011;6344;49.932;8.308;2024-01-11T05:24:12;33.63;;;20.70;;
12556;SDS011;6344;49.932;8.308;2024-01-11T05:26:39;34.17;;;20.58;;
12556;SDS011;6344;49.932;8.308;2024-01-11T05:29:06;39.20;;;23.55;;
12556;SDS011;6344;49.932;8.308;2024-01-11T05:31:34;36.13;;;25.58;;
12556;SDS011;6344;49.932;8.308;2024-01-11T05:34:03;39.65;;;24.60;;
12556;SDS011;6344;49.932;8.308;2024-01-11T05:36:30;38.80;;;24.13;;
12556;SDS011;6344;49.932;8.308;2024-01-11T05:38:57;35.80;;;21.80;;
12556;SDS011;6344;49.932;8.308;2024-01-11T05:41:24;36.90;;;23.75;;
12556;SDS011;6344;49.932;8.308;2024-01-11T05:43:51;36.65;;;22.52;;
12556;SDS011;6344;49.932;8.308;2024-01-11T05:46:18;38.95;;;24.67;;
12556;SDS011;6344;49.932;8.308;2024-01-11T05:48:45;41.53;;;23.92;;
12556;SDS011;6344;49.932;8.308;2024-01-11T05:51:13;40.75;;;25.85;;
12556;SDS011;6344;49.932;8.308;2024-01-11T05:53:40;45.30;;;24.88;;
12556;SDS011;6344;49.932;8.308;2024-01-11T05:56:07;41.55;;;28.17;;
12556;SDS011;6344;49.932;8.308;2024-01-11T05:58:35;47.17;;;27.55;;
12556;SDS011;6344;49.932;8.308;2024-01-11T06:01:03;51.00;;;26.40;;
12556;SDS011;6344;49.932;8.308;2024-01-11T06:03:30;46.78;;;26.70;;
12556;SDS011;6344;49.932;8.308;2024-01-11T06:05:59;47.90;;;25.35;;
12556;SDS011;6344;49.932;8.308;2024-01-11T06:08:28;45.63;;;27.77;;
12556;SDS011;6344;49.932;8.308;2024-01-11T06:10:55;44.45;;;26.13;;
12556;SDS011;6344;49.932;8.308;2024-01-11T06:13:22;47.15;;;27.98;;
12556;SDS011;6344;49.932;8.308;2024-01-11T06:15:49;48.08;;;27.95;;
12556;SDS011;6344;49.932;8.308;2024-01-11T06:18:16;45.42;;;25.45;;
12556;SDS011;6344;49.932;8.308;2024-01-11T06:20:43;42.28;;;24.55;;
12556;SDS011;6344;49.932;8.308;2024-01-11T06:23:10;47.53;;;26.40;;
12556;SDS011;6344;49.932;8.308;2024-01-11T06:25:38;47.13;;;26.92;;
12556;SDS011;6344;49.932;8.308;2024-01-11T06:28:06;47.03;;;29.52;;
12556;SDS011;6344;49.932;8.308;2024-01-11T06:30:34;46.50;;;28.45;;
12556;SDS011;6344;49.932;8.308;2024-01-11T06:33:02;45.40;;;28.02;;
12556;SDS011;6344;49.932;8.308;2024-01-11T06:35:29;52.70;;;29.23;;
12556;SDS011;6344;49.932;8.308;2024-01-11T06:37:56;41.70;;;26.67;;
12556;SDS011;6344;49.932;8.308;2024-01-11T06:40:23;44.60;;;28.17;;
12556;SDS011;6344;49.932;8.308;2024-01-11T06:42:52;49.50;;;29.50;;
12556;SDS011;6344;49.932;8.308;2024-01-11T06:45:19;46.35;;;26.88;;
12556;SDS011;6344;49.932;8.308;2024-01-11T06:47:46;58.28;;;32.00;;
12556;SDS011;6344;49.932;8.308;2024-01-11T06:50:14;50.75;;;30.17;;
12556;SDS011;6344;49.932;8.308;2024-01-11T06:52:41;49.60;;;29.90;;
12556;SDS011;6344;49.932;8.308;2024-01-11T06:55:08;57.20;;;32.13;;
12556;SDS011;6344;49.932;8.308;2024-01-11T06:57:36;48.38;;;29.63;;
12556;SDS011;6344;49.932;8.308;2024-01-11T07:00:05;46.00;;;29.45;;
12556;SDS011;6344;49.932;8.308;2024-01-11T07:02:32;48.85;;;30.63;;
12556;SDS011;6344;49.932;8.308;2024-01-11T07:04:59;43.90;;;28.60;;
12556;SDS011;6344;49.932;8.308;2024-01-11T07:07:27;56.47;;;30.88;;
12556;SDS011;6344;49.932;8.308;2024-01-11T07:09:54;50.90;;;29.92;;
12556;SDS011;6344;49.932;8.308;2024-01-11T07:12:21;53.17;;;27.90;;
12556;SDS011;6344;49.932;8.308;2024-01-11T07:14:48;50.53;;;29.95;;
12556;SDS011;6344;49.932;8.308;2024-01-11T07:17:16;49.92;;;34.03;;
12556;SDS011;6344;49.932;8.308;2024-01-11T07:19:44;51.22;;;29.98;;
12556;SDS011;6344;49.932;8.308;2024-01-11T07:22:11;63.15;;;31.90;;
12556;SDS011;6344;49.932;8.308;2024-01-11T07:24:38;53.33;;;32.35;;
12556;SDS011;6344;49.932;8.308;2024-01-11T07:27:05;61.15;;;31.52;;
12556;SDS011;6344;49.932;8.308;2024-01-11T07:29:33;52.30;;;31.33;;
12556;SDS011;6344;49.932;8.308;2024-01-11T07:32:00;49.70;;;31.25;;
12556;SDS011;6344;49.932;8.308;2024-01-11T07:34:30;48.63;;;28.92;;
12556;SDS011;6344;49.932;8.308;2024-01-11T07:36:57;51.85;;;29.30;;
12556;SDS011;6344;49.932;8.308;2024-01-11T07:39:24;50.28;;;29.10;;
12556;SDS011;6344;49.932;8.308;2024-01-11T07:41:51;60.63;;;32.17;;
12556;SDS011;6344;49.932;8.308;2024-01-11T07:44:18;42.33;;;28.15;;
12556;SDS011;6344;49.932;8.308;2024-01-11T07:46:46;53.05;;;30.02;;
12556;SDS011;6344;49.932;8.308;2024-01-11T07:49:13;51.30;;;31.70;;
12556;SDS011;6344;49.932;8.308;2024-01-11T07:51:41;51.33;;;33.20;;
12556;SDS011;6344;49.932;8.308;2024-01-11T07:54:08;59.53;;;33.80;;
12556;SDS011;6344;49.932;8.308;2024-01-11T07:56:35;50.20;;;31.73;;
12556;SDS011;6344;49.932;8.308;2024-01-11T07:59:02;47.15;;;32.53;;
12556;SDS011;6344;49.932;8.308;2024-01-11T08:01:30;53.50;;;32.80;;
12556;SDS011;6344;49.932;8.308;2024-01-11T08:04:00;57.80;;;30.90;;
12556;SDS011;6344;49.932;8.308;2024-01-11T08:06:27;47.03;;;30.50;;
12556;SDS011;6344;49.932;8.308;2024-01-11T08:08:56;50.00;;;28.70;;
12556;SDS011;6344;49.932;8.308;2024-01-11T08:11:23;44.67;;;28.80;;
12556;SDS011;6344;49.932;8.308;2024-01-11T08:13:50;52.45;;;34.83;;
12556;SDS011;6344;49.932;8.308;2024-01-11T08:16:19;49.38;;;31.27;;
12556;SDS011;6344;49.932;8.308;2024-01-11T08:18:47;49.15;;;31.73;;
12556;SDS011;6344;49.932;8.308;2024-01-11T08:21:14;51.75;;;31.60;;
12556;SDS011;6344;49.932;8.308;2024-01-11T08:23:41;50.00;;;31.17;;
12556;SDS011;6344;49.932;8.308;2024-01-11T08:26:12;68.68;;;31.92;;
12556;SDS011;6344;49.932;8.308;2024-01-11T08:28:39;51.42;;;31.80;;
12556;SDS011;6344;49.932;8.308;2024-01-11T08:31:06;53.15;;;32.75;;
12556;SDS011;6344;49.932;8.308;2024-01-11T08:33:33;54.97;;;32.15;;
12556;SDS011;6344;49.932;8.308;2024-01-11T08:36:02;44.15;;;32.08;;
12556;SDS011;6344;49.932;8.308;2024-01-11T08:38:29;59.53;;;33.17;;
12556;SDS011;6344;49.932;8.308;2024-01-11T08:40:57;54.03;;;31.27;;
12556;SDS011;6344;49.932;8.308;2024-01-11T08:43:25;58.90;;;33.90;;
12556;SDS011;6344;49.932;8.308;2024-01-11T08:45:52;58.03;;;34.95;;
12556;SDS011;6344;49.932;8.308;2024-01-11T08:48:20;57.75;;;35.50;;
12556;SDS011;6344;49.932;8.308;2024-01-11T08:50:46;52.22;;;33.13;;
12556;SDS011;6344;49.932;8.308;2024-01-11T08:53:13;63.70;;;34.53;;
12556;SDS011;6344;49.932;8.308;2024-01-11T08:55:41;51.00;;;34.33;;
12556;SDS011;6344;49.932;8.308;2024-01-11T08:58:08;59.70;;;36.90;;
12556;SDS011;6344;49.932;8.308;2024-01-11T09:00:36;61.83;;;36.65;;
12556;SDS011;6344;49.932;8.308;2024-01-11T09:03:04;66.03;;;36.22;;
12556;SDS011;6344;49.932;8.308;2024-01-11T09:05:31;60.25;;;35.15;;
12556;SDS011;6344;49.932;8.308;2024-01-11T09:07:58;54.78;;;33.42;;
12556;SDS011;6344;49.932;8.308;2024-01-11T09:10:25;48.70;;;30.92;;
12556;SDS011;6344;49.932;8.308;2024-01-11T09:12:52;36.83;;;22.90;;
12556;SDS011;6344;49.932;8.308;2024-01-11T09:15:20;49.08;;;29.27;;
12556;SDS011;6344;49.932;8.308;2024-01-11T09:17:49;54.20;;;33.70;;
12556;SDS011;6344;49.932;8.308;2024-01-11T09:20:16;42.00;;;26.30;;
12556;SDS011;6344;49.932;8.308;2024-01-11T09:22:43;40.78;;;28.17;;
12556;SDS011;6344;49.932;8.308;2024-01-11T09:25:11;48.88;;;29.63;;
12556;SDS011;6344;49.932;8.308;2024-01-11T09:27:38;47.80;;;29.38;;
12556;SDS011;6344;49.932;8.308;2024-01-11T09:30:06;53.10;;;34.10;;
12556;SDS011;6344;49.932;8.308;2024-01-11T09:32:33;51.03;;;31.33;;
12556;SDS011;6344;49.932;8.308;2024-01-11T09:35:02;61.15;;;33.25;;
12556;SDS011;6344;49.932;8.308;2024-01-11T09:37:29;55.30;;;35.78;;
12556;SDS011;6344;49.932;8.308;2024-01-11T09:39:57;56.57;;;33.80;;
12556;SDS011;6344;49.932;8.308;2024-01-11T09:42:25;56.50;;;34.47;;
12556;SDS011;6344;49.932;8.308;2024-01-11T09:44:53;50.88;;;33.40;;
12556;SDS011;6344;49.932;8.308;2024-01-11T09:47:20;49.47;;;34.72;;
12556;SDS011;6344;49.932;8.308;2024-01-11T09:49:48;50.97;;;34.13;;
12556;SDS011;6344;49.932;8.308;2024-01-11T09:52:18;51.20;;;34.33;;
12556;SDS011;6344;49.932;8.308;2024-01-11T09:54:46;43.03;;;27.40;;
12556;SDS011;6344;49.932;8.308;2024-01-11T09:57:14;54.20;;;35.50;;
12556;SDS011;6344;49.932;8.308;2024-01-11T09:59:44;50.42;;;33.17;;
12556;SDS011;6344;49.932;8.308;2024-01-11T10:02:11;50.57;;;35.27;;
12556;SDS011;6344;49.932;8.308;2024-01-11T10:04:40;41.03;;;28.33;;
12556;SDS011;6344;49.932;8.308;2024-01-11T10:07:07;45.75;;;28.90;;
12556;SDS011;6344;49.932;8.308;2024-01-11T10:09:36;46.07;;;31.37;;
12556;SDS011;6344;49.932;8.308;2024-01-11T10:12:04;44.38;;;30.17;;
12556;SDS011;6344;49.932;8.308;2024-01-11T10:14:31;38.17;;;24.58;;
12556;SDS011;6344;49.932;8.308;2024-01-11T10:16:58;37.22;;;23.92;;
12556;SDS011;6344;49.932;8.308;2024-01-11T10:19:25;24.50;;;17.73;;
12556;SDS011;6344;49.932;8.308;2024-01-11T10:21:52;30.67;;;17.00;;
12556;SDS011;6344;49.932;8.308;2024-01-11T10:24:19;28.30;;;17.83;;
12556;SDS011;6344;49.932;8.308;2024-01-11T10:26:52;57.08;;;32.08;;
12556;SDS011;6344;49.932;8.308;2024-01-11T10:29:22;51.75;;;31.55;;
12556;SDS011;6344;49.932;8.308;2024-01-11T10:31:50;51.97;;;30.85;;
12556;SDS011;6344;49.932;8.308;2024-01-11T10:34:18;35.80;;;25.60;;
12556;SDS011;6344;49.932;8.308;2024-01-11T10:36:46;42.77;;;28.90;;
12556;SDS011;6344;49.932;8.308;2024-01-11T10:39:13;50.23;;;36.83;;
12556;SDS011;6344;49.932;8.308;2024-01-11T10:41:42;56.57;;;39.43;;
12556;SDS011;6344;49.932;8.308;2024-01-11T10:44:12;46.20;;;34.70;;
12556;SDS011;6344;49.932;8.308;2024-01-11T10:46:41;48.57;;;39.23;;
12556;SDS011;6344;49.932;8.308;2024-01-11T10:49:08;52.13;;;36.27;;
12556;SDS011;6344;49.932;8.308;2024-01-11T10:51:37;54.53;;;37.87;;
12556;SDS011;6344;49.932;8.308;2024-01-11T10:54:05;52.70;;;36.60;;
12556;SDS011;6344;49.932;8.308;2024-01-11T10:56:32;49.97;;;38.17;;
12556;SDS011;6344;49.932;8.308;2024-01-11T10:59:00;47.37;;;38.23;;
12556;SDS011;6344;49.932;8.308;2024-01-11T11:01:28;50.63;;;38.80;;
12556;SDS011;6344;49.932;8.308;2024-01-11T11:03:56;46.60;;;38.27;;
12556;SDS011;6344;49.932;8.308;2024-01-11T11:06:23;49.53;;;38.70;;
12556;SDS011;6344;49.932;8.308;2024-01-11T11:08:51;50.50;;;38.03;;
12556;SDS011;6344;49.932;8.308;2024-01-11T11:11:19;50.23;;;38.50;;
12556;SDS011;6344;49.932;8.308;2024-01-11T11:13:47;48.47;;;38.43;;
12556;SDS011;6344;49.932;8.308;2024-01-11T11:16:14;49.23;;;34.90;;
12556;SDS011;6344;49.932;8.308;2024-01-11T11:18:43;46.70;;;36.43;;
12556;SDS011;6344;49.932;8.308;2024-01-11T11:21:10;43.30;;;37.93;;
12556;SDS011;6344;49.932;8.308;2024-01-11T11:23:37;49.57;;;40.43;;
12556;SDS011;6344;49.932;8.308;2024-01-11T11:26:05;53.27;;;40.17;;
12556;SDS011;6344;49.932;8.308;2024-01-11T11:28:33;47.10;;;36.90;;
12556;SDS011;6344;49.932;8.308;2024-01-11T11:31:02;45.40;;;37.93;;
12556;SDS011;6344;49.932;8.308;2024-01-11T11:33:29;52.43;;;41.43;;
12556;SDS011;6344;49.932;8.308;2024-01-11T11:35:58;49.40;;;39.07;;
12556;SDS011;6344;49.932;8.308;2024-01-11T11:38:26;48.87;;;38.10;;
12556;SDS011;6344;49.932;8.308;2024-01-11T11:40:54;49.37;;;38.87;;
12556;SDS011;6344;49.932;8.308;2024-01-11T11:43:23;47.80;;;38.20;;
12556;SDS011;6344;49.932;8.308;2024-01-11T11:45:51;52.13;;;38.67;;
12556;SDS011;6344;49.932;8.308;2024-01-11T11:51:07;46.07;;;36.90;;
12556;SDS011;6344;49.932;8.308;2024-01-11T11:53:34;47.03;;;35.20;;
12556;SDS011;6344;49.932;8.308;2024-01-11T11:56:02;48.57;;;34.40;;
12556;SDS011;6344;49.932;8.308;2024-01-11T11:58:30;54.33;;;37.67;;
12556;SDS011;6344;49.932;8.308;2024-01-11T12:00:57;43.03;;;35.53;;
12556;SDS011;6344;49.932;8.308;2024-01-11T12:03:25;50.43;;;38.00;;
12556;SDS011;6344;49.932;8.308;2024-01-11T12:05:55;48.47;;;36.60;;
12556;SDS011;6344;49.932;8.308;2024-01-11T12:08:23;42.70;;;31.90;;
12556;SDS011;6344;49.932;8.308;2024-01-11T12:10:50;58.13;;;40.13;;
12556;SDS011;6344;49.932;8.308;2024-01-11T12:13:18;49.07;;;36.13;;
12556;SDS011;6344;49.932;8.308;2024-01-11T12:15:45;53.37;;;38.47;;
12556;SDS011;6344;49.932;8.308;2024-01-11T12:18:12;44.03;;;31.63;;
12556;SDS011;6344;49.932;8.308;2024-01-11T12:20:39;48.70;;;34.47;;
12556;SDS011;6344;49.932;8.308;2024-01-11T12:23:07;53.00;;;37.57;;
12556;SDS011;6344;49.932;8.308;2024-01-11T12:25:35;48.77;;;37.57;;
12556;SDS011;6344;49.932;8.308;2024-01-11T12:28:03;48.63;;;37.50;;
12556;SDS011;6344;49.932;8.308;2024-01-11T12:30:30;50.07;;;39.00;;
12556;SDS011;6344;49.932;8.308;2024-01-11T12:32:57;46.23;;;37.27;;
12556;SDS011;6344;49.932;8.308;2024-01-11T12:35:26;48.50;;;36.90;;
12556;SDS011;6344;49.932;8.308;2024-01-11T12:37:53;43.23;;;35.90;;
12556;SDS011;6344;49.932;8.308;2024-01-11T12:40:21;46.23;;;36.10;;
12556;SDS011;6344;49.932;8.308;2024-01-11T12:42:49;46.13;;;37.67;;
12556;SDS011;6344;49.932;8.308;2024-01-11T12:45:17;48.53;;;37.40;;
12556;SDS011;6344;49.932;8.308;2024-01-11T12:47:44;43.93;;;34.00;;
12556;SDS011;6344;49.932;8.308;2024-01-11T12:50:11;46.40;;;34.90;;
12556;SDS011;6344;49.932;8.308;2024-01-11T12:52:38;46.70;;;36.07;;
12556;SDS011;6344;49.932;8.308;2024-01-11T12:55:07;50.67;;;30.00;;
12556;SDS011;6344;49.932;8.308;2024-01-11T12:57:34;47.80;;;32.73;;
12556;SDS011;6344;49.932;8.308;2024-01-11T13:00:10;44.50;;;34.53;;
12556;SDS011;6344;49.932;8.308;2024-01-11T13:02:38;49.90;;;35.57;;
12556;SDS011;6344;49.932;8.308;2024-01-11T13:05:05;45.20;;;35.20;;
12556;SDS011;6344;49.932;8.308;2024-01-11T13:07:33;50.72;;;41.17;;
12556;SDS011;6344;49.932;8.308;2024-01-11T13:10:00;47.77;;;40.00;;
12556;SDS011;6344;49.932;8.308;2024-01-11T13:12:28;46.50;;;37.17;;
12556;SDS011;6344;49.932;8.308;2024-01-11T13:14:56;46.60;;;37.50;;
12556;SDS011;6344;49.932;8.308;2024-01-11T13:17:24;51.20;;;38.00;;
12556;SDS011;6344;49.932;8.308;2024-01-11T13:19:52;50.23;;;37.53;;
12556;SDS011;6344;49.932;8.308;2024-01-11T13:22:19;51.57;;;38.73;;
12556;SDS011;6344;49.932;8.308;2024-01-11T13:24:47;53.33;;;38.63;;
12556;SDS011;6344;49.932;8.308;2024-01-11T13:27:14;46.97;;;38.20;;
12556;SDS011;6344;49.932;8.308;2024-01-11T13:29:41;52.87;;;38.77;;
12556;SDS011;6344;49.932;8.308;2024-01-11T13:32:08;60.47;;;38.87;;
12556;SDS011;6344;49.932;8.308;2024-01-11T13:34:37;45.23;;;37.80;;
12556;SDS011;6344;49.932;8.308;2024-01-11T13:37:04;46.30;;;38.23;;
12556;SDS011;6344;49.932;8.308;2024-01-11T13:39:31;52.67;;;37.40;;
12556;SDS011;6344;49.932;8.308;2024-01-11T13:41:58;52.37;;;38.07;;
12556;SDS011;6344;49.932;8.308;2024-01-11T13:44:28;47.10;;;36.37;;
12556;SDS011;6344;49.932;8.308;2024-01-11T13:46:55;46.33;;;35.23;;
12556;SDS011;6344;49.932;8.308;2024-01-11T13:49:22;45.33;;;37.43;;
12556;SDS011;6344;49.932;8.308;2024-01-11T13:51:51;47.47;;;38.93;;
12556;SDS011;6344;49.932;8.308;2024-01-11T13:54:18;46.77;;;37.27;;
12556;SDS011;6344;49.932;8.308;2024-01-11T13:56:46;49.10;;;38.40;;
12556;SDS011;6344;49.932;8.308;2024-01-11T13:59:13;46.83;;;40.07;;
12556;SDS011;6344;49.932;8.308;2024-01-11T14:01:40;45.87;;;39.00;;
12556;SDS011;6344;49.932;8.308;2024-01-11T14:04:07;46.10;;;37.60;;
12556;SDS011;6344;49.932;8.308;2024-01-11T14:06:34;47.17;;;39.07;;
12556;SDS011;6344;49.932;8.308;2024-01-11T14:09:03;53.13;;;37.87;;
12556;SDS011;6344;49.932;8.308;2024-01-11T14:11:34;52.27;;;40.87;;
12556;SDS011;6344;49.932;8.308;2024-01-11T14:14:01;49.47;;;38.67;;
12556;SDS011;6344;49.932;8.308;2024-01-11T14:16:28;48.13;;;37.77;;
12556;SDS011;6344;49.932;8.308;2024-01-11T14:18:55;52.57;;;39.30;;
12556;SDS011;6344;49.932;8.308;2024-01-11T14:21:22;49.53;;;39.00;;
12556;SDS011;6344;49.932;8.308;2024-01-11T14:23:49;51.13;;;35.70;;
12556;SDS011;6344;49.932;8.308;2024-01-11T14:26:18;47.10;;;38.20;;
12556;SDS011;6344;49.932;8.308;2024-01-11T14:28:45;53.03;;;39.80;;
12556;SDS011;6344;49.932;8.308;2024-01-11T14:31:12;48.90;;;39.80;;
12556;SDS011;6344;49.932;8.308;2024-01-11T14:33:39;59.27;;;39.50;;
12556;SDS011;6344;49.932;8.308;2024-01-11T14:36:07;45.60;;;37.10;;
12556;SDS011;6344;49.932;8.308;2024-01-11T14:38:34;51.55;;;44.28;;